Historyczne dane pomiarowe

Dodano dane terminowe – wersja testowa.

Dane z okresu 1951-2019

Wersja bazy: 1.34 [2019-03-16, lista zmian], aktualizacja planowana na 2019-04-15

Dane meteo z obszaru Polski uzyskane na podstawie danych udostępnionych przez Instytut Meteorologii i Gospodarki Wodnej – Państwowy Instytut Badawczy.

 

Wybierz Datę:    

       

TemperaturaWilgotnośćWiatrCiśnienieOpadyŚniegCzas trwania zjawisk
 Stacja t tx tn tng RH VA  wxwx mslp ppp RRR   cm mm wxwxwxwxwxwxwx
1999-08-14 15.4 19.1 11.6 10.3 90.0- 6.3 1.0---- 0.8------------
1999-08-13 14.6 16.0 13.4 13.4 95.5- 7.7 0.7---- 9.3------------
1999-08-12 15.1 18.0 11.6 10.3 89.3- 7.0 4.3---- 5.3------------
1999-08-11 18.1 23.1 14.2 12.3 83.3- 6.3 0.3---- 5.5------------
1999-08-10 21.8 28.1 15.2 13.3 77.8- 5.7 0.3---- 0.0------------
1999-08-09 22.7 28.9 17.8 16.9 77.5- 4.0 3.3---- 4.5------------
1999-08-08 20.5 24.6 17.6 17.6 85.0- 6.7 0.3---- 0.7------------
1999-08-07 20.5 27.1 15.0 11.8 77.0- 2.7 2.7---- 1.6------------
1999-08-06 21.8 28.3 15.1 11.3 77.8- 0.0 2.7---- 0.0------------
1999-08-05 20.5 29.6 10.0 7.3 71.3- 3.0 0.3---- 0.0------------
1999-08-04 19.2 26.1 10.3 7.3 83.5- 2.7 0.3---- 0.0------------
1999-08-03 18.8 27.5 10.2 7.3 84.5- 0.7 0.7---- 0.0------------
1999-08-02 19.3 26.9 10.8 7.8 84.8- 0.7 1.0---- 0.0------------
1999-08-01 19.8 26.9 9.3 6.3 71.0- 0.0 1.3---- 0.0------------
1999-07-31 19.6 27.1 9.4 6.8 75.3- 2.0 2.0---- 0.0------------
1999-07-30 18.2 26.6 10.4 5.9 90.3- 2.7 0.3---- 0.0------------
1999-07-29 17.8 24.9 7.9 5.8 70.8- 0.0 2.0---- 0.0------------
1999-07-28 16.9 23.1 7.9 6.5 67.5- 2.0 0.7---- 0.0------------
1999-07-27 15.7 21.6 9.4 6.3 71.5- 1.3 0.7---- 0.0------------
1999-07-26 17.2 20.6 15.4 13.3 83.3- 5.0 2.0---- 0.0------------
1999-07-25 19.2 24.1 14.8 12.8 98.3- 6.0 1.7---- 2.8------------
1999-07-24 16.2 19.1 12.8 11.3 97.0- 8.0 3.7---- 2.4------------
1999-07-23 16.6 21.1 11.8 9.3 81.0- 7.0 1.3---- 0.0------------
1999-07-22 16.8 20.1 13.3 11.8 67.8- 6.3 2.0---- 0.0------------
1999-07-21 20.4 25.1 17.5 14.3 83.0- 6.3 1.3---- 6.3------------
1999-07-20 23.1 31.9 16.8 15.3 66.8- 4.7 1.3---- 0.2------------
1999-07-19 21.1 28.1 12.0 11.1 71.5- 0.3 0.0---- 0.0------------
1999-07-18 18.6 24.6 11.8 11.8 77.0- 4.3 0.3---- 0.0------------
1999-07-17 16.8 21.3 11.8 9.8 82.8- 7.0 2.0---- 0.0------------
1999-07-16 16.0 20.1 10.5 9.5 70.0- 3.3 3.7---- 0.0------------
1999-07-15 16.2 18.6 14.3 14.3 85.5- 7.0 5.7---- 1.8------------
1999-07-14 20.4 25.6 18.3 17.2 85.3- 6.3 2.0---- 3.3------------
1999-07-13 21.7 29.3 16.3 9.3 78.5- 7.7 2.0---- 16.2------------
1999-07-12 22.3 28.6 12.8 10.8 65.0- 4.0 2.7---- 0.0------------
1999-07-11 20.9 27.6 12.0 10.5 66.8- 0.0 2.3---- 0.0------------
1999-07-10 18.1 24.6 8.4 6.8 72.8- 0.0 3.7---- 0.0------------
1999-07-09 16.9 20.3 12.8 10.3 81.0- 2.0 3.7---- 0.0------------
1999-07-08 17.8 21.9 13.8 13.3 82.3- 6.7 2.3---- 0.0------------
1999-07-07 16.7 19.6 13.3 12.8 90.3- 8.0 2.0---- 0.0------------
1999-07-06 21.3 29.6 17.1 17.1 90.8- 6.3 0.7---- 23.2------------
1999-07-05 24.5 33.6 13.3 11.8 62.5- 4.3 1.0---- 2.5------------
1999-07-04 20.3 24.6 15.8 13.3 83.3- 6.0 2.3---- 0.0------------
1999-07-03 18.3 22.6 13.1 10.8 80.3- 3.3 0.7---- 4.0------------
1999-07-02 16.5 20.6 11.8 10.3 87.8- 6.7 1.0---- 0.0------------
1999-07-01 18.7 23.1 16.3 14.8 91.8- 7.3 1.7---- 0.7------------
1999-06-30 19.8 25.6 12.8 11.0 78.5- 7.0 0.0---- 4.1------------
1999-06-29 17.1 22.1 11.3 11.3 74.3- 3.3 1.7---- 0.0------------
1999-06-28 20.6 27.1 17.3 15.7 85.5- 7.7 0.3---- 9.4------------
1999-06-27 20.1 25.7 11.8 9.3 70.8- 5.3 2.0---- 0.0------------
1999-06-26 12.6 17.3 5.9 4.8 83.0- 4.7 0.7---- 0.0------------
1999-06-25 11.5 16.0 5.7 5.7 88.5- 7.7 0.0---- 0.0------------
1999-06-24 12.4 16.5 5.9 3.8 78.8- 4.7 1.0---- 0.0------------
1999-06-23 12.1 14.5 8.5 8.5 87.5- 6.7 5.0---- 0.0------------
1999-06-22 11.2 14.2 8.9 8.8 81.0- 7.3 2.7---- 10.6------------
1999-06-21 15.4 21.6 12.3 12.3 85.8- 7.7 0.7---- 0.0------------
1999-06-20 18.0 23.6 10.8 9.8 68.8- 4.3 2.3---- 0.0------------
1999-06-19 15.8 19.6 13.3 11.8 93.0- 8.0 1.0---- 0.0------------
1999-06-18 16.3 22.1 10.4 8.3 85.3- 2.7 1.7---- 0.5------------
1999-06-17 16.2 21.6 8.2 6.8 81.0- 3.3 1.0---- 0.0------------
1999-06-16 16.1 20.1 10.5 9.3 77.3- 3.3 2.0---- 0.0------------
346.2 ms

 

Źródłem pochodzenia danych jest Instytut Meteorologii i Gospodarki Wodnej – Państwowy Instytut Badawczy. Dane Instytutu Meteorologii i Gospodarki Wodnej – Państwowego Instytutu Badawczego zostały przetworzone.

Dane źródłowe można odnaleźć na stronie https://dane.imgw.pl